sensor_id;sensor_type;location;lat;lon;timestamp;pressure;altitude;pressure_sealevel;temperature;humidity
11038;BME280;5572;49.540;11.932;2023-11-21T00:02:04;96122.03;;;9.72;100.00
11038;BME280;5572;49.540;11.932;2023-11-21T00:04:31;96120.34;;;9.76;100.00
11038;BME280;5572;49.540;11.932;2023-11-21T00:06:57;96123.72;;;9.68;100.00
11038;BME280;5572;49.540;11.932;2023-11-21T00:09:24;96116.84;;;9.75;100.00
11038;BME280;5572;49.540;11.932;2023-11-21T00:11:50;96120.78;;;9.83;100.00
11038;BME280;5572;49.540;11.932;2023-11-21T00:14:18;96126.09;;;9.88;100.00
11038;BME280;5572;49.540;11.932;2023-11-21T00:16:44;96129.09;;;9.68;100.00
11038;BME280;5572;49.540;11.932;2023-11-21T00:19:11;96124.84;;;9.80;100.00
11038;BME280;5572;49.540;11.932;2023-11-21T00:21:38;96127.63;;;9.75;100.00
11038;BME280;5572;49.540;11.932;2023-11-21T00:24:05;96137.25;;;9.81;100.00
11038;BME280;5572;49.540;11.932;2023-11-21T00:26:32;96140.84;;;9.77;100.00
11038;BME280;5572;49.540;11.932;2023-11-21T00:29:01;96132.22;;;9.75;100.00
11038;BME280;5572;49.540;11.932;2023-11-21T00:31:29;96139.44;;;9.79;100.00
11038;BME280;5572;49.540;11.932;2023-11-21T00:33:57;96134.56;;;9.81;100.00
11038;BME280;5572;49.540;11.932;2023-11-21T00:36:23;96131.13;;;9.76;100.00
11038;BME280;5572;49.540;11.932;2023-11-21T00:38:51;96140.06;;;9.58;100.00
11038;BME280;5572;49.540;11.932;2023-11-21T00:41:17;96128.22;;;9.72;100.00
11038;BME280;5572;49.540;11.932;2023-11-21T00:43:44;96141.09;;;9.62;100.00
11038;BME280;5572;49.540;11.932;2023-11-21T00:46:11;96140.25;;;9.61;100.00
11038;BME280;5572;49.540;11.932;2023-11-21T00:48:39;96138.97;;;9.59;100.00
11038;BME280;5572;49.540;11.932;2023-11-21T00:51:06;96145.88;;;9.65;100.00
11038;BME280;5572;49.540;11.932;2023-11-21T00:53:32;96140.06;;;9.58;100.00
11038;BME280;5572;49.540;11.932;2023-11-21T00:55:59;96140.94;;;9.72;100.00
11038;BME280;5572;49.540;11.932;2023-11-21T00:58:25;96130.91;;;9.72;100.00
11038;BME280;5572;49.540;11.932;2023-11-21T01:00:52;96137.72;;;9.70;100.00
11038;BME280;5572;49.540;11.932;2023-11-21T01:03:19;96145.97;;;9.60;100.00
11038;BME280;5572;49.540;11.932;2023-11-21T01:05:47;96142.84;;;9.53;100.00
11038;BME280;5572;49.540;11.932;2023-11-21T01:08:15;96149.69;;;9.45;100.00
11038;BME280;5572;49.540;11.932;2023-11-21T01:10:40;96147.41;;;9.52;100.00
11038;BME280;5572;49.540;11.932;2023-11-21T01:13:07;96142.09;;;9.66;100.00
11038;BME280;5572;49.540;11.932;2023-11-21T01:15:34;96139.38;;;9.66;100.00
11038;BME280;5572;49.540;11.932;2023-11-21T01:18:00;96140.69;;;9.68;100.00
11038;BME280;5572;49.540;11.932;2023-11-21T07:21:47;96340.91;;;9.70;100.00
11038;BME280;5572;49.540;11.932;2023-11-21T07:24:20;96329.03;;;9.48;100.00
11038;BME280;5572;49.540;11.932;2023-11-21T07:26:52;96337.19;;;9.66;100.00
11038;BME280;5572;49.540;11.932;2023-11-21T07:29:29;96327.25;;;9.62;100.00
11038;BME280;5572;49.540;11.932;2023-11-21T07:31:56;96339.81;;;9.71;100.00
11038;BME280;5572;49.540;11.932;2023-11-21T07:34:29;96345.28;;;9.66;100.00
11038;BME280;5572;49.540;11.932;2023-11-21T07:36:59;96353.53;;;9.75;100.00
11038;BME280;5572;49.540;11.932;2023-11-21T07:39:26;96356.53;;;9.73;100.00
11038;BME280;5572;49.540;11.932;2023-11-21T07:41:54;96345.28;;;9.66;100.00
11038;BME280;5572;49.540;11.932;2023-11-21T07:44:24;96349.59;;;9.67;100.00
11038;BME280;5572;49.540;11.932;2023-11-21T07:46:51;96362.69;;;9.55;100.00
11038;BME280;5572;49.540;11.932;2023-11-21T07:49:22;96351.75;;;9.89;100.00
11038;BME280;5572;49.540;11.932;2023-11-21T07:51:52;96360.69;;;10.08;100.00
11038;BME280;5572;49.540;11.932;2023-11-21T07:54:20;96349.25;;;10.16;100.00
11038;BME280;5572;49.540;11.932;2023-11-21T07:56:47;96346.63;;;10.11;100.00
11038;BME280;5572;49.540;11.932;2023-11-21T07:59:26;96349.03;;;10.12;100.00
11038;BME280;5572;49.540;11.932;2023-11-21T08:01:57;96353.97;;;10.24;100.00
11038;BME280;5572;49.540;11.932;2023-11-21T08:04:29;96350.56;;;10.18;100.00
11038;BME280;5572;49.540;11.932;2023-11-21T08:07:00;96340.94;;;10.30;100.00
11038;BME280;5572;49.540;11.932;2023-11-21T08:09:34;96350.31;;;10.15;100.00
11038;BME280;5572;49.540;11.932;2023-11-21T08:12:04;96365.31;;;9.37;100.00
11038;BME280;5572;49.540;11.932;2023-11-21T08:14:32;96357.50;;;9.59;100.00
11038;BME280;5572;49.540;11.932;2023-11-21T08:17:07;96350.25;;;9.78;100.00
11038;BME280;5572;49.540;11.932;2023-11-21T08:19:35;96357.81;;;9.57;100.00
11038;BME280;5572;49.540;11.932;2023-11-21T08:22:04;96354.03;;;10.00;100.00
11038;BME280;5572;49.540;11.932;2023-11-21T08:24:42;96360.78;;;10.03;100.00
11038;BME280;5572;49.540;11.932;2023-11-21T08:27:09;96365.91;;;10.23;100.00
11038;BME280;5572;49.540;11.932;2023-11-21T08:29:35;96368.59;;;10.23;100.00
11038;BME280;5572;49.540;11.932;2023-11-21T08:32:02;96363.13;;;10.27;100.00
11038;BME280;5572;49.540;11.932;2023-11-21T08:34:30;96350.78;;;10.40;100.00
11038;BME280;5572;49.540;11.932;2023-11-21T08:36:59;96360.09;;;9.69;100.00
11038;BME280;5572;49.540;11.932;2023-11-21T08:39:29;96344.56;;;10.21;100.00
11038;BME280;5572;49.540;11.932;2023-11-21T08:42:01;96344.22;;;10.27;100.00
11038;BME280;5572;49.540;11.932;2023-11-21T08:44:31;96351.94;;;10.34;100.00
11038;BME280;5572;49.540;11.932;2023-11-21T08:47:04;96341.72;;;10.31;100.00
11038;BME280;5572;49.540;11.932;2023-11-21T08:49:35;96351.13;;;10.33;100.00
11038;BME280;5572;49.540;11.932;2023-11-21T08:52:11;96346.75;;;10.37;100.00
11038;BME280;5572;49.540;11.932;2023-11-21T08:54:40;96357.13;;;10.12;100.00
11038;BME280;5572;49.540;11.932;2023-11-21T08:57:10;96365.81;;;10.46;100.00
11038;BME280;5572;49.540;11.932;2023-11-21T08:59:40;96349.81;;;10.31;100.00
11038;BME280;5572;49.540;11.932;2023-11-21T09:02:15;96347.34;;;10.34;100.00
11038;BME280;5572;49.540;11.932;2023-11-21T09:04:44;96362.09;;;10.24;100.00
11038;BME280;5572;49.540;11.932;2023-11-21T09:07:20;96344.88;;;10.38;100.00
11038;BME280;5572;49.540;11.932;2023-11-21T09:09:46;96348.09;;;10.72;100.00
11038;BME280;5572;49.540;11.932;2023-11-21T09:12:15;96350.03;;;10.71;100.00
11038;BME280;5572;49.540;11.932;2023-11-21T09:14:42;96342.31;;;10.78;100.00
11038;BME280;5572;49.540;11.932;2023-11-21T09:17:10;96337.09;;;11.00;100.00
11038;BME280;5572;49.540;11.932;2023-11-21T09:19:37;96339.97;;;10.90;100.00
11038;BME280;5572;49.540;11.932;2023-11-21T09:22:04;96334.22;;;11.10;100.00
11038;BME280;5572;49.540;11.932;2023-11-21T09:24:31;96351.31;;;10.74;100.00
11038;BME280;5572;49.540;11.932;2023-11-21T09:26:59;96357.41;;;10.47;100.00
11038;BME280;5572;49.540;11.932;2023-11-21T09:29:27;96352.00;;;10.98;100.00
11038;BME280;5572;49.540;11.932;2023-11-21T09:31:54;96352.50;;;11.00;100.00
11038;BME280;5572;49.540;11.932;2023-11-21T09:34:27;96360.66;;;10.81;100.00
11038;BME280;5572;49.540;11.932;2023-11-21T09:36:54;96353.88;;;10.84;100.00
11038;BME280;5572;49.540;11.932;2023-11-21T09:39:22;96356.59;;;10.97;100.00
11038;BME280;5572;49.540;11.932;2023-11-21T09:41:51;96366.31;;;10.66;100.00
11038;BME280;5572;49.540;11.932;2023-11-21T09:44:24;96364.31;;;10.72;100.00
11038;BME280;5572;49.540;11.932;2023-11-21T09:47:08;96352.03;;;10.79;100.00
11038;BME280;5572;49.540;11.932;2023-11-21T09:49:37;96352.88;;;10.93;100.00
11038;BME280;5572;49.540;11.932;2023-11-21T09:52:08;96359.47;;;10.87;100.00
11038;BME280;5572;49.540;11.932;2023-11-21T09:54:40;96352.13;;;10.74;100.00
11038;BME280;5572;49.540;11.932;2023-11-21T09:57:10;96360.69;;;10.63;100.00
11038;BME280;5572;49.540;11.932;2023-11-21T09:59:46;96348.28;;;10.62;100.00
11038;BME280;5572;49.540;11.932;2023-11-21T10:02:29;96338.69;;;10.69;100.00
11038;BME280;5572;49.540;11.932;2023-11-21T10:05:03;96336.19;;;10.73;100.00
11038;BME280;5572;49.540;11.932;2023-11-21T10:07:31;96327.06;;;10.69;100.00
11038;BME280;5572;49.540;11.932;2023-11-21T10:10:05;96341.41;;;10.69;100.00
11038;BME280;5572;49.540;11.932;2023-11-21T10:12:35;96323.44;;;10.92;100.00
11038;BME280;5572;49.540;11.932;2023-11-21T10:15:08;96333.91;;;10.80;100.00
11038;BME280;5572;49.540;11.932;2023-11-21T10:17:40;96324.00;;;10.75;100.00
11038;BME280;5572;49.540;11.932;2023-11-21T10:20:10;96314.44;;;10.64;100.00
11038;BME280;5572;49.540;11.932;2023-11-21T10:22:38;96330.94;;;10.13;100.00
11038;BME280;5572;49.540;11.932;2023-11-21T10:25:07;96316.31;;;10.50;100.00
11038;BME280;5572;49.540;11.932;2023-11-21T10:27:34;96300.28;;;10.72;100.00
11038;BME280;5572;49.540;11.932;2023-11-21T10:30:02;96312.47;;;10.38;100.00
11038;BME280;5572;49.540;11.932;2023-11-21T10:32:29;96310.38;;;10.67;100.00
11038;BME280;5572;49.540;11.932;2023-11-21T10:34:59;96330.69;;;10.46;100.00
11038;BME280;5572;49.540;11.932;2023-11-21T10:37:31;96317.69;;;10.80;100.00
11038;BME280;5572;49.540;11.932;2023-11-21T10:39:58;96329.22;;;10.53;100.00
11038;BME280;5572;49.540;11.932;2023-11-21T10:42:25;96326.50;;;10.53;100.00
11038;BME280;5572;49.540;11.932;2023-11-21T10:44:52;96331.06;;;10.39;100.00
11038;BME280;5572;49.540;11.932;2023-11-21T10:47:19;96329.09;;;10.45;100.00
11038;BME280;5572;49.540;11.932;2023-11-21T10:49:48;96317.69;;;10.80;100.00
11038;BME280;5572;49.540;11.932;2023-11-21T10:52:18;96328.84;;;10.60;100.00
11038;BME280;5572;49.540;11.932;2023-11-21T10:54:46;96318.22;;;10.95;100.00
11038;BME280;5572;49.540;11.932;2023-11-21T10:57:17;96327.50;;;11.08;100.00
11038;BME280;5572;49.540;11.932;2023-11-21T10:59:46;96332.38;;;10.92;100.00
11038;BME280;5572;49.540;11.932;2023-11-21T11:02:20;96332.22;;;11.29;100.00
11038;BME280;5572;49.540;11.932;2023-11-21T11:04:48;96332.22;;;11.29;100.00
11038;BME280;5572;49.540;11.932;2023-11-21T11:07:17;96333.69;;;11.08;100.00
11038;BME280;5572;49.540;11.932;2023-11-21T11:09:44;96341.94;;;11.16;100.00
11038;BME280;5572;49.540;11.932;2023-11-21T11:12:13;96306.41;;;11.63;100.00
11038;BME280;5572;49.540;11.932;2023-11-21T11:14:42;96300.56;;;11.83;100.00
11038;BME280;5572;49.540;11.932;2023-11-21T11:17:10;96298.63;;;12.10;100.00
11038;BME280;5572;49.540;11.932;2023-11-21T11:19:37;96298.25;;;12.25;100.00
11038;BME280;5572;49.540;11.932;2023-11-21T11:22:11;96304.13;;;12.05;100.00
11038;BME280;5572;49.540;11.932;2023-11-21T11:27:39;96297.56;;;11.85;100.00
11038;BME280;5572;49.540;11.932;2023-11-21T11:30:14;96310.53;;;11.61;100.00
11038;BME280;5572;49.540;11.932;2023-11-21T11:32:49;96296.16;;;11.74;100.00
11038;BME280;5572;49.540;11.932;2023-11-21T11:35:26;96295.97;;;11.43;100.00
11038;BME280;5572;49.540;11.932;2023-11-21T11:37:54;96320.16;;;10.95;100.00
11038;BME280;5572;49.540;11.932;2023-11-21T11:40:25;96299.44;;;11.17;100.00
11038;BME280;5572;49.540;11.932;2023-11-21T11:42:56;96309.84;;;10.97;100.00
11038;BME280;5572;49.540;11.932;2023-11-21T11:45:26;96309.56;;;10.80;100.00
11038;BME280;5572;49.540;11.932;2023-11-21T11:48:00;96299.22;;;10.87;100.00
11038;BME280;5572;49.540;11.932;2023-11-21T11:50:26;96299.78;;;10.84;100.00
11038;BME280;5572;49.540;11.932;2023-11-21T11:52:53;96290.53;;;11.16;100.00
11038;BME280;5572;49.540;11.932;2023-11-21T11:55:24;96302.53;;;11.24;100.00
11038;BME280;5572;49.540;11.932;2023-11-21T11:57:56;96295.25;;;11.38;100.00
11038;BME280;5572;49.540;11.932;2023-11-21T12:00:34;96314.78;;;11.35;100.00
11038;BME280;5572;49.540;11.932;2023-11-21T12:03:04;96301.25;;;11.21;100.00
11038;BME280;5572;49.540;11.932;2023-11-21T12:05:31;96330.97;;;10.95;100.00
11038;BME280;5572;49.540;11.932;2023-11-21T12:08:02;96310.78;;;11.32;100.00
11038;BME280;5572;49.540;11.932;2023-11-21T12:10:31;96326.28;;;11.13;100.00
11038;BME280;5572;49.540;11.932;2023-11-21T12:12:59;96310.63;;;11.56;100.00
11038;BME280;5572;49.540;11.932;2023-11-21T12:15:26;96326.63;;;11.25;100.00
11038;BME280;5572;49.540;11.932;2023-11-21T12:17:55;96321.44;;;11.56;100.00
11038;BME280;5572;49.540;11.932;2023-11-21T12:20:23;96360.22;;;11.06;100.00
11038;BME280;5572;49.540;11.932;2023-11-21T12:22:51;96334.16;;;11.82;100.00
11038;BME280;5572;49.540;11.932;2023-11-21T12:25:18;96354.75;;;11.70;100.00
11038;BME280;5572;49.540;11.932;2023-11-21T12:27:47;96356.94;;;11.68;100.00
11038;BME280;5572;49.540;11.932;2023-11-21T12:30:16;96360.75;;;11.80;100.00
11038;BME280;5572;49.540;11.932;2023-11-21T12:32:44;96351.22;;;11.96;100.00
11038;BME280;5572;49.540;11.932;2023-11-21T12:35:12;96352.19;;;12.00;100.00
11038;BME280;5572;49.540;11.932;2023-11-21T12:37:40;96367.69;;;11.73;100.00
11038;BME280;5572;49.540;11.932;2023-11-21T12:40:09;96391.63;;;11.66;100.00
11038;BME280;5572;49.540;11.932;2023-11-21T12:42:37;96384.00;;;12.08;100.00
11038;BME280;5572;49.540;11.932;2023-11-21T12:45:18;96405.69;;;11.95;100.00
11038;BME280;5572;49.540;11.932;2023-11-21T12:47:46;96393.03;;;12.03;100.00
11038;BME280;5572;49.540;11.932;2023-11-21T12:50:13;96432.16;;;11.39;100.00
11038;BME280;5572;49.540;11.932;2023-11-21T12:52:44;96398.66;;;11.80;100.00
11038;BME280;5572;49.540;11.932;2023-11-21T12:55:15;96416.19;;;11.56;100.00
11038;BME280;5572;49.540;11.932;2023-11-21T12:57:43;96418.63;;;11.57;100.00
11038;BME280;5572;49.540;11.932;2023-11-21T13:00:12;96430.03;;;11.54;100.00
11038;BME280;5572;49.540;11.932;2023-11-21T13:02:52;96411.28;;;11.58;100.00
11038;BME280;5572;49.540;11.932;2023-11-21T13:05:24;96418.75;;;11.93;100.00
11038;BME280;5572;49.540;11.932;2023-11-21T13:07:51;96428.81;;;11.60;100.00
11038;BME280;5572;49.540;11.932;2023-11-21T13:10:20;96425.84;;;11.62;100.00
11038;BME280;5572;49.540;11.932;2023-11-21T13:12:51;96452.69;;;11.26;100.00
11038;BME280;5572;49.540;11.932;2023-11-21T13:15:20;96441.50;;;11.46;100.00
11038;BME280;5572;49.540;11.932;2023-11-21T13:17:47;96441.00;;;11.44;100.00
11038;BME280;5572;49.540;11.932;2023-11-21T13:20:15;96428.44;;;11.80;100.00
11038;BME280;5572;49.540;11.932;2023-11-21T13:22:49;96432.25;;;11.79;100.00
11038;BME280;5572;49.540;11.932;2023-11-21T13:25:17;96434.69;;;12.07;100.00
11038;BME280;5572;49.540;11.932;2023-11-21T13:27:45;96438.50;;;12.06;100.00
11038;BME280;5572;49.540;11.932;2023-11-21T13:30:13;96448.72;;;11.83;100.00
11038;BME280;5572;49.540;11.932;2023-11-21T13:32:45;96445.41;;;11.99;100.00
11038;BME280;5572;49.540;11.932;2023-11-21T13:35:12;96443.59;;;12.08;100.00
11038;BME280;5572;49.540;11.932;2023-11-21T13:37:49;96451.72;;;11.81;100.00
11038;BME280;5572;49.540;11.932;2023-11-21T13:40:22;96453.66;;;11.94;100.00
11038;BME280;5572;49.540;11.932;2023-11-21T13:42:53;96448.81;;;12.04;100.00
11038;BME280;5572;49.540;11.932;2023-11-21T13:45:21;96457.16;;;11.95;100.00
11038;BME280;5572;49.540;11.932;2023-11-21T13:47:50;96461.34;;;11.74;100.00
11038;BME280;5572;49.540;11.932;2023-11-21T13:50:23;96458.63;;;11.74;100.00
11038;BME280;5572;49.540;11.932;2023-11-21T13:52:54;96470.41;;;11.51;100.00
11038;BME280;5572;49.540;11.932;2023-11-21T13:55:21;96478.09;;;11.12;100.00
11038;BME280;5572;49.540;11.932;2023-11-21T13:57:50;96483.13;;;11.00;100.00
11038;BME280;5572;49.540;11.932;2023-11-21T14:00:18;96466.31;;;11.35;100.00
11038;BME280;5572;49.540;11.932;2023-11-21T14:03:03;96469.03;;;11.35;100.00
11038;BME280;5572;49.540;11.932;2023-11-21T14:05:34;96481.94;;;11.24;100.00
11038;BME280;5572;49.540;11.932;2023-11-21T14:08:00;96467.25;;;11.44;100.00
11038;BME280;5572;49.540;11.932;2023-11-21T14:10:30;96481.81;;;11.48;100.00
11038;BME280;5572;49.540;11.932;2023-11-21T14:13:05;96484.91;;;11.73;100.00
11038;BME280;5572;49.540;11.932;2023-11-21T14:15:32;96497.53;;;11.64;100.00
11038;BME280;5572;49.540;11.932;2023-11-21T14:18:04;96491.97;;;11.88;100.00
11038;BME280;5572;49.540;11.932;2023-11-21T14:20:33;96497.06;;;11.89;100.00
11038;BME280;5572;49.540;11.932;2023-11-21T14:23:01;96492.25;;;11.86;100.00
11038;BME280;5572;49.540;11.932;2023-11-21T14:25:28;96505.09;;;11.81;100.00
11038;BME280;5572;49.540;11.932;2023-11-21T14:27:55;96509.28;;;11.73;100.00
11038;BME280;5572;49.540;11.932;2023-11-21T14:30:22;96516.28;;;11.42;100.00
11038;BME280;5572;49.540;11.932;2023-11-21T14:32:48;96510.88;;;11.24;100.00
11038;BME280;5572;49.540;11.932;2023-11-21T14:35:17;96522.69;;;10.78;100.00
11038;BME280;5572;49.540;11.932;2023-11-21T14:37:44;96499.28;;;10.68;100.00
11038;BME280;5572;49.540;11.932;2023-11-21T14:40:12;96484.16;;;10.67;100.00
11038;BME280;5572;49.540;11.932;2023-11-21T14:42:41;96473.41;;;10.62;100.00
11038;BME280;5572;49.540;11.932;2023-11-21T14:45:09;96479.75;;;10.53;100.00
11038;BME280;5572;49.540;11.932;2023-11-21T14:47:37;96468.94;;;10.53;100.00
11038;BME280;5572;49.540;11.932;2023-11-21T14:50:09;96467.56;;;10.55;100.00
11038;BME280;5572;49.540;11.932;2023-11-21T14:53:05;96465.28;;;10.44;100.00
11038;BME280;5572;49.540;11.932;2023-11-21T14:55:32;96468.56;;;10.41;100.00
11038;BME280;5572;49.540;11.932;2023-11-21T14:58:07;96469.50;;;10.31;100.00
11038;BME280;5572;49.540;11.932;2023-11-21T15:00:37;96483.88;;;10.04;100.00
11038;BME280;5572;49.540;11.932;2023-11-21T15:03:10;96472.06;;;9.95;100.00
11038;BME280;5572;49.540;11.932;2023-11-21T15:05:46;96468.63;;;9.89;100.00
11038;BME280;5572;49.540;11.932;2023-11-21T15:08:15;96471.94;;;9.81;100.00
11038;BME280;5572;49.540;11.932;2023-11-21T15:10:47;96467.13;;;9.78;100.00
11038;BME280;5572;49.540;11.932;2023-11-21T15:13:18;96476.22;;;9.87;100.00
11038;BME280;5572;49.540;11.932;2023-11-21T15:15:44;96480.22;;;9.90;100.00
11038;BME280;5572;49.540;11.932;2023-11-21T15:18:11;96483.41;;;9.68;100.00
11038;BME280;5572;49.540;11.932;2023-11-21T15:20:39;96474.13;;;9.79;100.00
11038;BME280;5572;49.540;11.932;2023-11-21T15:23:06;96481.56;;;9.64;100.00
11038;BME280;5572;49.540;11.932;2023-11-21T15:25:35;96489.28;;;9.52;100.00
11038;BME280;5572;49.540;11.932;2023-11-21T15:28:02;96505.25;;;9.43;100.00
11038;BME280;5572;49.540;11.932;2023-11-21T15:30:30;96493.16;;;9.41;100.00
11038;BME280;5572;49.540;11.932;2023-11-21T15:32:57;96487.34;;;9.57;100.00
11038;BME280;5572;49.540;11.932;2023-11-21T15:35:24;96483.50;;;9.58;100.00
11038;BME280;5572;49.540;11.932;2023-11-21T15:37:53;96493.50;;;9.58;100.00
11038;BME280;5572;49.540;11.932;2023-11-21T15:40:22;96483.19;;;9.65;100.00
11038;BME280;5572;49.540;11.932;2023-11-21T15:42:50;96495.06;;;9.64;100.00
11038;BME280;5572;49.540;11.932;2023-11-21T15:45:17;96491.72;;;9.77;100.00
11038;BME280;5572;49.540;11.932;2023-11-21T15:47:46;96495.50;;;9.76;100.00
11038;BME280;5572;49.540;11.932;2023-11-21T15:50:13;96504.59;;;9.56;100.00
11038;BME280;5572;49.540;11.932;2023-11-21T15:52:40;96500.88;;;9.76;100.00
11038;BME280;5572;49.540;11.932;2023-11-21T15:55:09;96501.41;;;9.78;100.00
11038;BME280;5572;49.540;11.932;2023-11-21T15:57:36;96516.25;;;9.52;100.00
11038;BME280;5572;49.540;11.932;2023-11-21T16:00:05;96529.16;;;9.22;100.00
11038;BME280;5572;49.540;11.932;2023-11-21T16:02:41;96517.94;;;9.43;100.00
11038;BME280;5572;49.540;11.932;2023-11-21T16:05:08;96516.91;;;9.67;100.00
11038;BME280;5572;49.540;11.932;2023-11-21T16:07:35;96526.38;;;9.65;100.00
11038;BME280;5572;49.540;11.932;2023-11-21T16:10:03;96528.28;;;9.31;100.00
11038;BME280;5572;49.540;11.932;2023-11-21T16:12:29;96528.81;;;9.61;100.00
11038;BME280;5572;49.540;11.932;2023-11-21T16:14:56;96534.19;;;9.66;100.00
11038;BME280;5572;49.540;11.932;2023-11-21T16:17:24;96545.41;;;9.50;100.00
11038;BME280;5572;49.540;11.932;2023-11-21T16:19:51;96545.06;;;9.56;100.00
11038;BME280;5572;49.540;11.932;2023-11-21T16:22:20;96548.44;;;9.72;100.00
11038;BME280;5572;49.540;11.932;2023-11-21T16:24:47;96556.03;;;9.70;100.00
11038;BME280;5572;49.540;11.932;2023-11-21T16:27:13;96560.19;;;9.57;100.00
11038;BME280;5572;49.540;11.932;2023-11-21T16:29:42;96575.19;;;9.35;100.00
11038;BME280;5572;49.540;11.932;2023-11-21T16:32:10;96565.44;;;9.39;100.00
11038;BME280;5572;49.540;11.932;2023-11-21T16:34:38;96576.78;;;9.36;100.00
11038;BME280;5572;49.540;11.932;2023-11-21T16:37:06;96571.63;;;9.44;100.00
11038;BME280;5572;49.540;11.932;2023-11-21T16:39:32;96577.63;;;9.32;100.00
11038;BME280;5572;49.540;11.932;2023-11-21T16:42:00;96580.94;;;9.19;100.00
11038;BME280;5572;49.540;11.932;2023-11-21T16:44:27;96592.03;;;9.17;100.00
11038;BME280;5572;49.540;11.932;2023-11-21T16:46:54;96574.28;;;9.11;100.00
11038;BME280;5572;49.540;11.932;2023-11-21T16:49:22;96581.59;;;9.06;100.00
11038;BME280;5572;49.540;11.932;2023-11-21T16:51:50;96579.75;;;9.01;100.00
11038;BME280;5572;49.540;11.932;2023-11-21T16:54:18;96587.75;;;9.11;100.00
11038;BME280;5572;49.540;11.932;2023-11-21T16:56:45;96588.59;;;9.07;100.00
11038;BME280;5572;49.540;11.932;2023-11-21T16:59:12;96599.53;;;9.25;100.00
11038;BME280;5572;49.540;11.932;2023-11-21T17:01:39;96597.66;;;9.26;100.00
11038;BME280;5572;49.540;11.932;2023-11-21T17:04:06;96601.59;;;9.38;100.00
11038;BME280;5572;49.540;11.932;2023-11-21T17:06:34;96604.06;;;9.35;100.00
11038;BME280;5572;49.540;11.932;2023-11-21T17:09:02;96611.91;;;8.88;100.00
11038;BME280;5572;49.540;11.932;2023-11-21T17:11:29;96607.00;;;8.95;100.00
11038;BME280;5572;49.540;11.932;2023-11-21T17:13:57;96604.28;;;9.43;100.00
11038;BME280;5572;49.540;11.932;2023-11-21T17:16:24;96605.91;;;9.39;100.00
11038;BME280;5572;49.540;11.932;2023-11-21T17:18:51;96616.22;;;9.32;100.00
11038;BME280;5572;49.540;11.932;2023-11-21T17:21:17;96630.56;;;9.23;100.00
11038;BME280;5572;49.540;11.932;2023-11-21T17:23:45;96635.66;;;9.24;100.00
11038;BME280;5572;49.540;11.932;2023-11-21T17:26:13;96652.88;;;8.85;100.00
11038;BME280;5572;49.540;11.932;2023-11-21T17:28:41;96636.50;;;8.71;100.00
11038;BME280;5572;49.540;11.932;2023-11-21T17:31:07;96648.31;;;8.75;100.00
11038;BME280;5572;49.540;11.932;2023-11-21T17:33:34;96643.16;;;8.84;100.00
11038;BME280;5572;49.540;11.932;2023-11-21T17:36:01;96653.16;;;8.73;100.00
11038;BME280;5572;49.540;11.932;2023-11-21T17:38:27;96660.69;;;8.76;100.00
11038;BME280;5572;49.540;11.932;2023-11-21T17:40:54;96662.56;;;8.81;100.00
11038;BME280;5572;49.540;11.932;2023-11-21T17:43:22;96678.53;;;8.67;100.00
11038;BME280;5572;49.540;11.932;2023-11-21T17:45:49;96677.81;;;8.37;100.00
11038;BME280;5572;49.540;11.932;2023-11-21T17:48:16;96687.16;;;8.54;100.00
11038;BME280;5572;49.540;11.932;2023-11-21T17:50:43;96677.19;;;8.65;100.00
11038;BME280;5572;49.540;11.932;2023-11-21T17:53:10;96669.06;;;8.70;100.00
11038;BME280;5572;49.540;11.932;2023-11-21T17:55:36;96683.38;;;8.70;100.00
11038;BME280;5572;49.540;11.932;2023-11-21T17:58:03;96686.38;;;8.49;100.00
11038;BME280;5572;49.540;11.932;2023-11-21T18:00:31;96688.78;;;8.55;100.00
11038;BME280;5572;49.540;11.932;2023-11-21T18:02:58;96698.25;;;8.13;100.00
11038;BME280;5572;49.540;11.932;2023-11-21T18:05:25;96699.63;;;8.26;100.00
11038;BME280;5572;49.540;11.932;2023-11-21T18:07:52;96712.00;;;8.17;100.00
11038;BME280;5572;49.540;11.932;2023-11-21T18:10:18;96712.50;;;8.04;100.00
11038;BME280;5572;49.540;11.932;2023-11-21T18:12:45;96704.44;;;8.09;100.00
11038;BME280;5572;49.540;11.932;2023-11-21T18:15:12;96729.47;;;7.74;100.00
11038;BME280;5572;49.540;11.932;2023-11-21T18:17:41;96736.19;;;7.72;100.00
11038;BME280;5572;49.540;11.932;2023-11-21T18:20:08;96733.50;;;7.72;100.00
11038;BME280;5572;49.540;11.932;2023-11-21T18:22:35;96735.13;;;7.78;100.00
11038;BME280;5572;49.540;11.932;2023-11-21T18:25:03;96724.38;;;7.88;100.00
11038;BME280;5572;49.540;11.932;2023-11-21T18:27:30;96727.06;;;8.08;100.00
11038;BME280;5572;49.540;11.932;2023-11-21T18:29:57;96722.78;;;8.22;100.00
11038;BME280;5572;49.540;11.932;2023-11-21T18:32:24;96726.00;;;8.39;100.00
11038;BME280;5572;49.540;11.932;2023-11-21T18:34:52;96751.59;;;8.21;100.00
11038;BME280;5572;49.540;11.932;2023-11-21T18:37:19;96760.16;;;8.13;100.00
11038;BME280;5572;49.540;11.932;2023-11-21T18:39:48;96756.97;;;8.26;100.00
11038;BME280;5572;49.540;11.932;2023-11-21T18:42:16;96761.28;;;8.27;100.00
11038;BME280;5572;49.540;11.932;2023-11-21T18:44:42;96761.00;;;8.19;100.00
11038;BME280;5572;49.540;11.932;2023-11-21T18:47:09;96762.59;;;8.45;100.00
11038;BME280;5572;49.540;11.932;2023-11-21T18:49:37;96772.31;;;8.36;100.00
11038;BME280;5572;49.540;11.932;2023-11-21T18:52:06;96763.44;;;8.30;100.00
11038;BME280;5572;49.540;11.932;2023-11-21T18:54:33;96757.78;;;8.37;100.00
11038;BME280;5572;49.540;11.932;2023-11-21T18:57:00;96768.56;;;8.32;100.00
11038;BME280;5572;49.540;11.932;2023-11-21T18:59:27;96766.09;;;8.50;100.00
11038;BME280;5572;49.540;11.932;2023-11-21T19:01:54;96776.63;;;8.52;100.00
11038;BME280;5572;49.540;11.932;2023-11-21T19:04:20;96783.06;;;8.55;100.00
11038;BME280;5572;49.540;11.932;2023-11-21T19:06:49;96785.22;;;8.53;100.00
11038;BME280;5572;49.540;11.932;2023-11-21T19:09:19;96792.00;;;8.46;100.00